Time;durP1;ratioP1;P1;durP2;ratioP2;P2;SDS_P1;SDS_P2;PMS_P1;PMS_P2;Temp;Humidity;BMP_temperature;BMP_pressure;BME280_temperature;BME280_humidity;BME280_pressure;Samples;Min_cycle;Max_cycle;Signal;HPM_P1;HPM_P2
2023/09/19 00:02:21;;;;;;;13.62;5.80;;;;;;;25.63;45.14;99176.03;7556031;33;37135;-78
2023/09/19 00:06:37;;;;;;;16.65;6.00;;;;;;;25.48;45.54;99167.59;7556160;33;39325;-80
2023/09/19 00:10:54;;;;;;;15.23;5.37;;;;;;;25.47;46.01;99171.59;7554988;33;40771;-79
2023/09/19 00:15:11;;;;;;;18.05;6.40;;;;;;;25.41;46.42;99163.97;7555862;33;38619;-79
2023/09/19 00:19:27;;;;;;;17.42;6.53;;;;;;;24.99;47.47;99167.94;7555543;33;37344;-80
2023/09/19 00:23:44;;;;;;;10.88;6.22;;;;;;;24.51;49.45;99179.78;7555848;33;39396;-79
2023/09/19 00:28:00;;;;;;;14.77;6.40;;;;;;;24.74;50.72;99176.88;7555859;33;39939;-79
2023/09/19 00:32:17;;;;;;;13.27;5.78;;;;;;;24.84;50.55;99172.59;7555895;33;37704;-79
2023/09/19 00:36:33;;;;;;;16.23;6.85;;;;;;;24.76;50.29;99166.12;7555727;33;37870;-80
2023/09/19 00:40:53;;;;;;;17.65;6.80;;;;;;;24.04;53.97;99183.97;7555752;33;39397;-79
2023/09/19 00:45:13;;;;;;;19.95;6.70;;;;;;;24.08;54.39;99191.19;7555648;33;40836;-80
2023/09/19 00:49:33;;;;;;;16.23;6.87;;;;;;;23.83;55.31;99190.84;7555610;33;37926;-79
2023/09/19 00:53:50;;;;;;;12.45;6.68;;;;;;;23.89;55.58;99183.78;7555637;33;37918;-79
2023/09/19 00:58:06;;;;;;;14.80;6.95;;;;;;;24.08;55.11;99190.41;7555350;33;39201;-80
2023/09/19 01:02:23;;;;;;;15.77;6.95;;;;;;;24.09;54.35;99178.06;7554691;33;40062;-79
2023/09/19 01:06:39;;;;;;;14.52;6.93;;;;;;;24.05;56.42;99174.44;7555487;33;37930;-80
2023/09/19 01:11:36;;;;;;;16.67;7.68;;;;;;;24.21;56.27;99179.81;7555420;33;37144;-79
2023/09/19 01:16:11;;;;;;;18.20;7.12;;;;;;;23.99;57.78;99187.88;7539343;33;39054;-79
2023/09/19 01:20:47;;;;;;;15.20;6.78;;;;;;;24.00;55.60;99190.28;7554828;33;39973;-79
2023/09/19 01:25:34;;;;;;;17.83;6.95;;;;;;;24.16;55.72;99190.12;7555226;33;37882;-80
2023/09/19 01:29:50;;;;;;;15.60;7.22;;;;;;;24.21;56.55;99188.16;7555320;33;36948;-78
2023/09/19 01:34:07;;;;;;;22.92;7.40;;;;;;;24.11;56.32;99178.50;7555210;33;39231;-80
2023/09/19 01:38:24;;;;;;;15.98;7.20;;;;;;;24.15;56.01;99188.50;7554962;33;40187;-80
2023/09/19 01:42:46;;;;;;;19.10;6.37;;;;;;;24.38;54.96;99182.81;7555041;33;39060;-80
2023/09/19 01:47:08;;;;;;;12.82;7.07;;;;;;;24.24;55.88;99184.63;7554677;33;37364;-77
2023/09/19 01:51:34;;;;;;;13.43;6.90;;;;;;;24.12;57.76;99188.47;7555041;33;39245;-80
2023/09/19 01:55:51;;;;;;;20.95;7.35;;;;;;;24.29;56.65;99173.97;7541896;33;39821;-79
2023/09/19 02:00:11;;;;;;;14.80;5.70;;;;;;;24.35;55.15;99172.44;7541611;33;37835;-79
2023/09/19 02:04:28;;;;;;;17.52;7.03;;;;;;;24.24;53.65;99165.94;7554354;33;37914;-79
2023/09/19 02:08:45;;;;;;;14.68;6.68;;;;;;;23.99;55.50;99165.59;7553302;33;39121;-79
2023/09/19 02:13:04;;;;;;;11.05;6.28;;;;;;;24.29;55.23;99168.38;7552569;33;40872;-80
2023/09/19 02:17:20;;;;;;;18.02;6.37;;;;;;;23.95;56.39;99171.13;7553441;33;37705;-79
2023/09/19 02:21:40;;;;;;;14.57;6.32;;;;;;;23.92;56.05;99171.91;7554619;33;38000;-80
2023/09/19 02:26:06;;;;;;;14.75;6.85;;;;;;;24.11;56.13;99167.34;7554581;33;39196;-80
2023/09/19 02:30:23;;;;;;;14.90;7.80;;;;;;;23.40;59.72;99184.59;7554759;33;39945;-80
2023/09/19 02:34:39;;;;;;;13.30;7.45;;;;;;;23.32;60.68;99183.69;7554440;33;37618;-80
2023/09/19 02:38:55;;;;;;;16.25;7.45;;;;;;;23.19;60.86;99185.84;7554342;33;37942;-81
2023/09/19 02:43:11;;;;;;;20.27;8.68;;;;;;;22.50;63.36;99183.78;7554408;33;39394;-80
2023/09/19 02:47:28;;;;;;;12.10;7.50;;;;;;;22.97;62.29;99189.41;7553665;33;40089;-80
2023/09/19 02:51:45;;;;;;;15.45;7.55;;;;;;;23.09;62.43;99185.69;7554180;33;37983;-80
2023/09/19 02:56:03;;;;;;;16.65;6.85;;;;;;;22.85;62.79;99191.22;7554212;33;37109;-79
2023/09/19 03:00:21;;;;;;;15.50;7.80;;;;;;;22.88;61.54;99186.88;7554091;33;38295;-80
2023/09/19 03:04:37;;;;;;;16.20;6.97;;;;;;;23.17;61.26;99179.06;7540797;33;40757;-80
2023/09/19 03:08:55;;;;;;;17.05;6.97;;;;;;;22.87;62.16;99176.94;7553860;33;38771;-81
2023/09/19 03:13:12;;;;;;;18.65;7.47;;;;;;;22.79;61.64;99162.09;7553708;33;39482;-80
2023/09/19 03:17:28;;;;;;;14.18;6.70;;;;;;;23.02;61.22;99152.97;7553884;33;39246;-80
2023/09/19 03:21:45;;;;;;;16.35;7.47;;;;;;;23.01;61.01;99145.81;7553497;33;40018;-80
2023/09/19 03:26:01;;;;;;;15.10;6.75;;;;;;;23.15;61.04;99146.09;7553628;33;38744;-80
2023/09/19 03:30:18;;;;;;;8.95;4.62;;;;;;;23.23;60.87;99161.72;7553184;33;37997;-80
2023/09/19 03:34:35;;;;;;;10.05;4.35;;;;;;;22.86;59.05;99161.44;7553385;33;40009;-80
2023/09/19 03:38:52;;;;;;;11.12;4.75;;;;;;;22.93;58.74;99177.44;7553238;33;40864;-80
2023/09/19 03:43:08;;;;;;;8.75;4.30;;;;;;;22.65;59.78;99192.41;7553229;33;38629;-80
2023/09/19 03:47:24;;;;;;;12.40;3.37;;;;;;;21.85;61.91;99192.72;7553256;33;36956;-79
2023/09/19 03:51:41;;;;;;;5.93;2.28;;;;;;;21.79;60.36;99202.50;7552951;33;39522;-79
2023/09/19 03:55:57;;;;;;;4.70;1.87;;;;;;;21.82;58.66;99206.50;7553052;33;39927;-80
2023/09/19 04:00:14;;;;;;;6.57;1.85;;;;;;;21.87;58.00;99206.22;7552527;33;38247;-80
2023/09/19 04:04:30;;;;;;;4.22;1.80;;;;;;;21.71;58.35;99209.84;7552592;33;36810;-79
2023/09/19 04:08:48;;;;;;;8.13;1.60;;;;;;;21.53;58.83;99211.41;7552464;33;39488;-80
2023/09/19 04:13:04;;;;;;;5.37;1.50;;;;;;;21.29;59.56;99237.31;7552776;33;40782;-80
2023/09/19 04:17:21;;;;;;;1.37;1.20;;;;;;;21.19;60.07;99231.13;7552208;33;38542;-80
2023/09/19 04:21:37;;;;;;;4.55;1.42;;;;;;;20.98;60.43;99241.66;7552451;33;37037;-82
2023/09/19 04:25:53;;;;;;;4.07;1.58;;;;;;;20.81;60.92;99240.00;7552387;33;39405;-80
2023/09/19 04:30:11;;;;;;;3.70;1.17;;;;;;;20.68;61.08;99255.06;7552166;33;40932;-81
2023/09/19 04:34:28;;;;;;;6.22;1.35;;;;;;;20.55;61.98;99255.09;7552814;33;37958;-80
2023/09/19 04:38:44;;;;;;;2.92;1.30;;;;;;;20.39;62.71;99266.09;7555615;33;37263;-80
2023/09/19 04:43:02;;;;;;;1.33;1.23;;;;;;;20.23;63.17;99268.81;7542653;33;39430;-80
2023/09/19 04:47:19;;;;;;;1.50;1.05;;;;;;;20.09;64.71;99284.97;7555506;33;40005;-80
2023/09/19 04:51:36;;;;;;;5.20;1.62;;;;;;;19.91;66.09;99292.72;7555675;33;37911;-79
2023/09/19 04:55:53;;;;;;;3.58;1.50;;;;;;;19.78;67.19;99294.69;7555640;33;36872;-81
2023/09/19 05:00:12;;;;;;;7.28;1.58;;;;;;;19.16;70.39;99298.47;7555666;33;39321;-81
2023/09/19 05:04:28;;;;;;;3.80;1.60;;;;;;;19.16;71.92;99301.22;7555452;33;39734;-80
2023/09/19 05:08:45;;;;;;;5.50;1.52;;;;;;;18.36;74.93;99309.34;7555380;33;38060;-80
2023/09/19 05:13:01;;;;;;;3.25;1.70;;;;;;;18.72;74.63;99304.38;7555390;33;37014;-80
2023/09/19 05:17:18;;;;;;;2.45;1.55;;;;;;;18.90;73.91;99305.06;7555044;33;39459;-80
2023/09/19 05:21:34;;;;;;;3.15;1.58;;;;;;;18.99;72.99;99307.72;7555279;33;39599;-80
2023/09/19 05:25:51;;;;;;;1.87;1.40;;;;;;;18.75;74.11;99309.22;7555357;33;37749;-79
2023/09/19 05:30:08;;;;;;;2.55;1.48;;;;;;;18.66;73.74;99325.03;7542156;33;37862;-79
2023/09/19 05:34:25;;;;;;;1.62;1.30;;;;;;;18.71;73.23;99319.31;7555293;33;39496;-80
2023/09/19 05:38:42;;;;;;;4.47;1.60;;;;;;;18.74;73.81;99329.69;7554717;33;40351;-80
2023/09/19 05:42:58;;;;;;;5.05;1.67;;;;;;;18.50;74.65;99341.41;7554899;33;37692;-80
2023/09/19 05:47:15;;;;;;;6.35;1.60;;;;;;;18.82;72.85;99341.81;7555044;33;37215;-80
2023/09/19 05:51:31;;;;;;;1.95;1.00;;;;;;;18.63;73.00;99337.59;7555080;33;40133;-81
2023/09/19 05:55:47;;;;;;;4.85;1.30;;;;;;;18.44;73.72;99337.22;7554913;33;40003;-80
2023/09/19 06:00:08;;;;;;;5.28;1.17;;;;;;;18.54;73.35;99340.41;7554548;33;38768;-80
2023/09/19 06:04:25;;;;;;;1.85;1.17;;;;;;;18.54;73.28;99342.34;7529435;33;37085;-80
2023/09/19 06:08:44;;;;;;;1.55;1.27;;;;;;;18.95;72.35;99351.78;7529329;33;39406;-79
2023/09/19 06:13:09;;;;;;;4.60;1.30;;;;;;;18.51;73.65;99354.06;7529284;33;40065;-80
2023/09/19 06:17:27;;;;;;;3.15;1.25;;;;;;;17.90;76.17;99359.94;7526960;33;37942;-70
2023/09/19 06:21:46;;;;;;;3.05;1.40;;;;;;;18.16;75.96;99354.28;7529059;33;38035;-68
2023/09/19 06:26:06;;;;;;;2.83;1.40;;;;;;;18.09;77.36;99365.03;7529109;33;40077;-69
2023/09/19 06:30:24;;;;;;;1.52;1.30;;;;;;;18.35;75.68;99367.63;7529136;33;40651;-68
2023/09/19 06:34:43;;;;;;;6.15;2.00;;;;;;;18.58;74.17;99354.34;7529055;33;37844;-73
2023/09/19 06:38:59;;;;;;;2.33;1.12;;;;;;;18.38;75.35;99372.50;7553139;33;36114;-73
2023/09/19 06:43:16;;;;;;;6.37;1.30;;;;;;;18.42;75.31;99381.72;7554381;33;39437;-83
2023/09/19 06:47:33;;;;;;;3.72;0.98;;;;;;;18.37;75.22;99377.22;7553685;33;39764;-85
2023/09/19 06:51:49;;;;;;;1.40;0.70;;;;;;;17.72;78.68;99390.28;7550524;33;38161;-75
2023/09/19 06:56:06;;;;;;;3.85;1.15;;;;;;;17.95;77.57;99409.38;7553249;33;37066;-81
2023/09/19 07:00:23;;;;;;;1.90;0.88;;;;;;;18.30;75.56;99415.56;7553670;33;39117;-80
2023/09/19 07:04:40;;;;;;;4.70;1.12;;;;;;;18.37;75.72;99413.09;7553364;33;40891;-81
2023/09/19 07:08:57;;;;;;;1.90;0.90;;;;;;;17.54;79.41;99419.88;7553724;33;38711;-80
2023/09/19 07:13:16;;;;;;;1.00;0.90;;;;;;;17.90;78.07;99428.87;7553889;33;37118;-81
2023/09/19 07:17:33;;;;;;;2.20;1.25;;;;;;;17.58;80.09;99423.56;7553874;33;39352;-80
2023/09/19 07:21:50;;;;;;;6.43;1.45;;;;;;;17.84;78.89;99434.53;7553276;33;40085;-82
2023/09/19 07:26:07;;;;;;;2.90;1.40;;;;;;;17.46;80.00;99438.00;7553395;33;37719;-82
2023/09/19 07:30:23;;;;;;;3.22;1.70;;;;;;;18.09;78.35;99432.06;7553382;33;37275;-81
2023/09/19 07:34:40;;;;;;;1.85;1.60;;;;;;;18.15;78.04;99435.44;7553330;33;39419;-82
2023/09/19 07:38:57;;;;;;;2.37;1.37;;;;;;;18.17;77.97;99430.37;7553148;33;39765;-82
2023/09/19 07:43:33;;;;;;;1.85;1.15;;;;;;;17.89;79.03;99432.78;7542036;33;38084;-81
2023/09/19 07:47:51;;;;;;;2.08;1.37;;;;;;;18.23;78.29;99437.34;7552881;33;38703;-83
2023/09/19 07:52:07;;;;;;;2.78;1.42;;;;;;;18.11;78.40;99457.34;7553344;33;39346;-80
2023/09/19 07:56:26;;;;;;;2.22;1.37;;;;;;;17.59;80.43;99474.81;7552905;33;39936;-82
2023/09/19 08:00:42;;;;;;;4.70;1.65;;;;;;;18.02;79.77;99471.19;7552845;33;38657;-80
2023/09/19 08:05:00;;;;;;;4.20;1.60;;;;;;;18.50;77.92;99484.94;7552438;33;37813;-81
2023/09/19 08:09:20;;;;;;;3.92;1.60;;;;;;;18.66;77.23;99477.72;7553545;33;39270;-80
2023/09/19 08:13:43;;;;;;;2.53;1.40;;;;;;;18.48;77.40;99488.03;7555304;33;40597;-79
2023/09/19 08:18:01;;;;;;;5.90;1.75;;;;;;;18.35;76.94;99489.87;7556007;33;37933;-82
2023/09/19 08:22:19;;;;;;;2.28;1.37;;;;;;;17.87;79.12;99496.53;7556088;33;37825;-82
2023/09/19 08:26:37;;;;;;;5.47;1.33;;;;;;;18.52;76.29;99496.44;7555621;33;39432;-82
2023/09/19 08:30:54;;;;;;;2.40;1.12;;;;;;;18.45;77.38;99504.44;7555932;33;39944;-82
2023/09/19 08:35:11;;;;;;;2.65;1.37;;;;;;;17.55;79.19;99509.66;7555795;33;37867;-80
2023/09/19 08:39:30;;;;;;;2.60;1.30;;;;;;;17.84;79.21;99505.41;7554917;33;37116;-80
2023/09/19 08:43:47;;;;;;;2.37;1.50;;;;;;;18.53;77.80;99517.41;7555329;33;39134;-80
2023/09/19 08:48:15;;;;;;;1.98;1.20;;;;;;;18.43;77.66;99517.75;7554121;33;40919;-79
2023/09/19 08:52:41;;;;;;;2.80;1.40;;;;;;;18.80;76.95;99527.19;7540815;33;38601;-78
2023/09/19 08:57:02;;;;;;;2.62;1.45;;;;;;;18.49;76.25;99531.06;7555692;33;37096;-78
2023/09/19 09:01:24;;;;;;;3.20;1.37;;;;;;;18.34;77.12;99532.41;7552604;33;39094;-78
2023/09/19 09:05:46;;;;;;;2.45;1.20;;;;;;;18.74;75.04;99534.81;7537937;33;39974;-79
2023/09/19 09:10:03;;;;;;;3.17;1.40;;;;;;;19.03;74.42;99535.19;7539497;33;38660;-80
2023/09/19 09:14:21;;;;;;;3.03;1.20;;;;;;;19.07;73.92;99542.47;7555401;33;37194;-81
2023/09/19 09:18:38;;;;;;;2.75;1.50;;;;;;;18.66;75.13;99543.97;7553224;33;38378;-80
2023/09/19 09:22:58;;;;;;;3.17;1.40;;;;;;;19.40;73.49;99536.22;7554730;33;39764;-80
2023/09/19 09:27:15;;;;;;;2.03;1.40;;;;;;;19.31;73.61;99524.44;7555161;33;38761;-82
2023/09/19 09:31:31;;;;;;;2.65;1.30;;;;;;;19.33;73.58;99527.66;7553629;33;37862;-84
2023/09/19 09:36:02;;;;;;;2.50;1.60;;;;;;;19.33;73.91;99527.66;7541246;33;40084;-82
2023/09/19 09:40:19;;;;;;;4.32;1.60;;;;;;;19.88;71.69;99509.94;7553024;33;39758;-83
2023/09/19 09:44:39;;;;;;;3.80;1.50;;;;;;;19.93;71.30;99505.37;7554255;33;37971;-84
2023/09/19 09:53:36;;;;;;;2.87;1.62;;;;;;;19.89;72.20;99539.25;7552976;33;39890;-84
2023/09/19 09:58:18;;;;;;;6.50;1.50;;;;;;;19.02;75.42;99542.66;7551803;33;39709;-84
2023/09/19 10:02:40;;;;;;;2.67;1.60;;;;;;;19.66;74.15;99529.66;7551491;33;37713;-83
2023/09/19 10:06:57;;;;;;;3.08;2.22;;;;;;;19.94;73.01;99531.88;7553983;33;37952;-84
2023/09/19 10:11:18;;;;;;;5.75;2.25;;;;;;;20.23;73.14;99520.66;7554066;33;40089;-83
2023/09/19 10:15:36;;;;;;;3.45;2.03;;;;;;;20.35;72.38;99514.34;7554430;33;41372;-77
2023/09/19 10:19:58;;;;;;;4.18;1.60;;;;;;;19.58;73.48;99517.53;7551930;33;38596;-83
2023/09/19 10:24:17;;;;;;;3.05;1.95;;;;;;;20.33;72.09;99507.50;7552803;33;37297;-84
2023/09/19 10:28:35;;;;;;;5.22;2.17;;;;;;;20.39;71.52;99508.91;7554600;33;39192;-86
2023/09/19 10:33:02;;;;;;;8.13;2.37;;;;;;;20.76;71.14;99512.50;7540616;33;39981;-86
2023/09/19 10:37:20;;;;;;;4.03;2.40;;;;;;;20.92;69.91;99507.09;7541667;33;38610;-84
2023/09/19 10:41:37;;;;;;;3.35;2.40;;;;;;;20.54;70.00;99513.78;7540884;33;37889;-75
2023/09/19 10:45:53;;;;;;;4.55;2.37;;;;;;;20.73;70.67;99523.47;7554460;33;39428;-70
2023/09/19 10:50:21;;;;;;;4.47;2.40;;;;;;;21.01;68.82;99515.28;7554331;33;40837;-70
2023/09/19 10:54:39;;;;;;;5.87;2.28;;;;;;;20.59;70.70;99529.34;7553168;33;37893;-69
2023/09/19 10:59:18;;;;;;;4.93;2.50;;;;;;;20.48;70.55;99529.00;7552978;33;37827;-68
2023/09/19 11:03:37;;;;;;;3.45;2.10;;;;;;;20.87;69.47;99531.44;7553936;33;40055;-71
2023/09/19 11:08:04;;;;;;;4.20;2.33;;;;;;;20.78;68.99;99540.69;7553060;33;40824;-69
2023/09/19 11:12:30;;;;;;;4.10;2.17;;;;;;;20.56;70.01;99543.91;7554088;33;37975;-83
2023/09/19 11:17:11;;;;;;;3.90;1.60;;;;;;;20.12;70.43;99560.97;7554112;33;37097;-82
2023/09/19 11:21:29;;;;;;;4.40;1.62;;;;;;;21.00;67.56;99561.56;7553174;33;40314;-83
2023/09/19 11:25:49;;;;;;;4.32;1.60;;;;;;;20.81;66.63;99555.81;7552831;33;40859;-83
2023/09/19 11:30:26;;;;;;;3.55;1.70;;;;;;;20.69;67.44;99564.13;7552896;33;38673;-82
2023/09/19 11:34:48;;;;;;;3.25;1.75;;;;;;;21.32;65.75;99564.53;7552460;33;37025;-81
2023/09/19 11:39:08;;;;;;;2.65;1.40;;;;;;;22.04;65.40;99555.53;7551593;33;39135;-81
2023/09/19 11:43:33;;;;;;;3.25;1.65;;;;;;;22.06;62.17;99547.66;7553242;33;40091;-82
2023/09/19 11:47:51;;;;;;;2.53;1.42;;;;;;;21.81;63.55;99555.28;7554018;33;37874;-82
2023/09/19 11:52:08;;;;;;;2.12;1.60;;;;;;;21.60;63.00;99552.72;7553686;33;38163;-83
2023/09/19 11:56:31;;;;;;;2.47;1.80;;;;;;;21.42;62.75;99571.56;7554328;33;37990;-82
2023/09/19 12:00:54;;;;;;;3.55;1.65;;;;;;;21.44;63.59;99577.56;7552876;33;40171;-81
2023/09/19 12:05:10;;;;;;;1.58;1.40;;;;;;;21.56;63.43;99576.78;7554977;33;37748;-80
2023/09/19 12:09:27;;;;;;;3.28;2.00;;;;;;;22.21;62.14;99573.03;7556362;33;37089;-78
2023/09/19 12:13:44;;;;;;;6.70;2.10;;;;;;;22.24;62.21;99575.09;7556326;33;39309;-81
2023/09/19 12:18:01;;;;;;;5.40;2.70;;;;;;;22.23;61.97;99579.03;7556110;33;40664;-80
2023/09/19 12:22:20;;;;;;;2.87;2.40;;;;;;;22.37;61.02;99565.56;7555353;33;38691;-80
2023/09/19 12:26:52;;;;;;;4.55;2.62;;;;;;;22.31;60.80;99564.19;7552484;33;37876;-79
2023/09/19 12:31:08;;;;;;;3.53;2.80;;;;;;;21.97;61.85;99566.41;7554538;33;40171;-80
2023/09/19 12:35:36;;;;;;;6.50;3.12;;;;;;;22.41;60.70;99563.69;7553727;33;39880;-79
2023/09/19 12:39:56;;;;;;;7.00;2.92;;;;;;;22.75;60.38;99550.25;7552361;33;37771;-79
2023/09/19 12:44:12;;;;;;;4.97;2.75;;;;;;;22.50;60.13;99550.41;7553934;33;35890;-79
2023/09/19 12:48:29;;;;;;;4.07;2.22;;;;;;;22.48;60.24;99551.94;7554806;33;39366;-78
2023/09/19 12:52:48;;;;;;;4.57;2.58;;;;;;;22.63;59.72;99542.81;7554788;33;40010;-79
2023/09/19 12:57:06;;;;;;;5.35;2.20;;;;;;;22.63;59.55;99558.69;7554090;33;38006;-79
2023/09/19 13:01:27;;;;;;;4.80;1.75;;;;;;;23.21;57.66;99544.97;7554544;33;37029;-78
2023/09/19 13:05:53;;;;;;;;;;;;;;;23.67;55.39;99544.37;7554747;33;39402;-78
2023/09/19 13:10:10;;;;;;;3.55;1.92;;;;;;;23.42;56.05;99543.84;7554784;33;41133;-80
2023/09/19 13:14:31;;;;;;;3.42;2.00;;;;;;;24.04;55.26;99534.78;7554086;33;38670;-80
2023/09/19 13:18:56;;;;;;;6.12;2.37;;;;;;;23.55;54.55;99544.53;7554485;33;38081;-80
2023/09/19 13:23:27;;;;;;;3.70;2.12;;;;;;;23.89;54.68;99545.63;7555423;33;39327;-80
2023/09/19 13:27:44;;;;;;;1.95;1.40;;;;;;;23.99;53.41;99544.22;7551746;33;39549;-81
2023/09/19 13:32:02;;;;;;;2.42;1.30;;;;;;;24.25;51.67;99551.87;7553097;33;38090;-79
2023/09/19 13:36:18;;;;;;;2.55;1.40;;;;;;;24.96;49.39;99533.94;7553176;33;37015;-80
2023/09/19 13:40:35;;;;;;;7.32;2.03;;;;;;;25.39;47.64;99546.56;7554485;33;39206;-80
2023/09/19 13:44:52;;;;;;;2.12;1.37;;;;;;;25.08;48.28;99540.12;7554594;33;39950;-79
2023/09/19 13:49:09;;;;;;;3.85;1.55;;;;;;;25.02;47.75;99544.41;7554326;33;38298;-81
2023/09/19 13:53:26;;;;;;;1.60;1.20;;;;;;;25.38;47.37;99542.16;7554490;33;37902;-80
2023/09/19 13:57:43;;;;;;;2.22;1.60;;;;;;;25.72;47.19;99547.78;7554436;33;39315;-80
2023/09/19 14:02:00;;;;;;;4.22;1.40;;;;;;;24.95;47.64;99561.03;7554202;33;40920;-80
2023/09/19 14:06:18;;;;;;;4.20;1.50;;;;;;;25.54;46.67;99564.28;7554161;33;37717;-80
2023/09/19 14:10:35;;;;;;;2.30;1.25;;;;;;;25.38;46.83;99572.84;7553924;33;37672;-79
2023/09/19 14:14:52;;;;;;;2.40;1.40;;;;;;;25.32;47.76;99567.97;7554503;33;39516;-81
2023/09/19 14:19:08;;;;;;;2.20;1.52;;;;;;;25.89;46.20;99565.09;7554018;33;39745;-80
2023/09/19 14:23:26;;;;;;;1.35;1.17;;;;;;;25.91;46.05;99565.56;7554189;33;37880;-80
2023/09/19 14:27:43;;;;;;;1.87;1.15;;;;;;;25.77;45.42;99566.97;7554264;33;36937;-81
2023/09/19 14:32:00;;;;;;;2.58;1.30;;;;;;;25.25;46.34;99574.22;7554110;33;38771;-78
2023/09/19 14:36:17;;;;;;;5.65;1.40;;;;;;;25.49;46.86;99578.56;7554232;33;40713;-79
2023/09/19 14:40:36;;;;;;;2.50;1.20;;;;;;;25.32;47.51;99568.78;7553807;33;38164;-81
2023/09/19 14:44:52;;;;;;;3.30;1.27;;;;;;;25.33;47.12;99564.81;7554090;33;37886;-80
2023/09/19 14:49:10;;;;;;;7.25;1.27;;;;;;;25.28;46.04;99567.91;7553832;33;39214;-80
2023/09/19 14:53:29;;;;;;;2.87;1.30;;;;;;;25.79;46.10;99553.44;7553947;33;39866;-81
2023/09/19 14:57:51;;;;;;;5.68;1.52;;;;;;;26.47;44.20;99553.38;7553827;33;37882;-80
2023/09/19 15:02:08;;;;;;;2.33;1.30;;;;;;;26.16;42.18;99572.22;7553667;33;36988;-80
2023/09/19 15:06:26;;;;;;;2.33;1.10;;;;;;;26.65;41.82;99558.34;7553648;33;39215;-80
2023/09/19 15:10:52;;;;;;;2.40;1.30;;;;;;;26.41;41.88;99563.31;7553752;33;40906;-82
2023/09/19 15:15:09;;;;;;;1.52;1.02;;;;;;;26.43;42.22;99558.94;7553629;33;38711;-80
2023/09/19 15:19:26;;;;;;;2.58;1.10;;;;;;;25.99;42.99;99568.06;7552554;33;37885;-81
2023/09/19 15:23:43;;;;;;;2.35;1.20;;;;;;;25.65;44.63;99578.41;7553419;33;40466;-80
2023/09/19 15:28:07;;;;;;;1.85;1.20;;;;;;;25.44;45.29;99576.09;7539791;33;40816;-82
2023/09/19 15:32:24;;;;;;;6.25;1.30;;;;;;;25.12;45.78;99580.03;7553242;33;37476;-81
2023/09/19 15:36:41;;;;;;;1.80;0.93;;;;;;;25.36;43.48;99589.16;7552020;33;37028;-80
2023/09/19 15:40:59;;;;;;;3.05;1.02;;;;;;;25.33;43.51;99584.34;7553183;33;38033;-79
2023/09/19 15:45:18;;;;;;;1.67;1.42;;;;;;;24.70;45.19;99591.31;7552779;33;40081;-80
2023/09/19 15:49:35;;;;;;;1.75;1.10;;;;;;;24.61;46.05;99591.56;7552768;33;37874;-81
2023/09/19 15:53:53;;;;;;;2.35;1.33;;;;;;;24.46;46.77;99606.38;7552735;33;37019;-80
2023/09/19 15:58:09;;;;;;;2.25;1.30;;;;;;;24.51;46.96;99603.28;7552421;33;38393;-81
2023/09/19 16:02:26;;;;;;;2.87;1.42;;;;;;;24.40;47.63;99619.00;7552647;33;40195;-81
2023/09/19 16:06:43;;;;;;;2.67;1.15;;;;;;;24.22;48.43;99613.91;7551832;33;38603;-81
2023/09/19 16:10:59;;;;;;;1.50;1.15;;;;;;;24.40;47.77;99617.00;7552314;33;37186;-80
2023/09/19 16:15:15;;;;;;;2.97;1.70;;;;;;;24.65;47.16;99609.12;7552190;33;40193;-82
2023/09/19 16:19:32;;;;;;;2.20;1.40;;;;;;;24.74;47.48;99604.09;7551758;33;39920;-81
2023/09/19 16:23:50;;;;;;;3.40;1.40;;;;;;;26.39;43.48;99593.62;7552087;33;37921;-80
2023/09/19 16:28:07;;;;;;;2.17;1.25;;;;;;;25.85;44.55;99585.44;7551698;33;37061;-81
2023/09/19 16:32:23;;;;;;;4.18;1.45;;;;;;;26.58;42.78;99603.81;7554489;33;39331;-80
2023/09/19 16:36:39;;;;;;;1.95;1.30;;;;;;;26.07;44.28;99601.66;7555609;33;39997;-81
2023/09/19 16:41:00;;;;;;;3.97;1.50;;;;;;;25.27;46.47;99599.81;7555017;33;38049;-81
2023/09/19 16:45:16;;;;;;;2.30;1.30;;;;;;;24.95;47.31;99605.66;7555474;33;37755;-81
2023/09/19 16:49:33;;;;;;;3.60;1.48;;;;;;;24.72;47.82;99609.25;7554948;33;40063;-81
2023/09/19 16:53:52;;;;;;;2.37;1.35;;;;;;;24.38;48.98;99622.94;7555698;33;40056;-81
2023/09/19 16:58:09;;;;;;;2.03;1.30;;;;;;;24.26;49.86;99623.09;7554600;33;37763;-80
2023/09/19 17:02:28;;;;;;;3.17;1.30;;;;;;;24.11;50.34;99635.97;7554924;33;37031;-80
2023/09/19 17:06:46;;;;;;;2.47;1.35;;;;;;;23.84;50.91;99631.44;7554829;33;39450;-81
2023/09/19 17:11:10;;;;;;;5.00;1.40;;;;;;;23.75;51.04;99639.94;7554861;33;40725;-81
2023/09/19 17:15:26;;;;;;;3.12;1.35;;;;;;;23.44;52.02;99645.22;7555019;33;38036;-81
2023/09/19 17:19:43;;;;;;;3.47;1.90;;;;;;;23.38;52.45;99643.09;7554796;33;36927;-80
2023/09/19 17:23:59;;;;;;;2.60;1.60;;;;;;;23.39;52.48;99644.72;7555096;33;40155;-81
2023/09/19 17:28:16;;;;;;;4.03;1.70;;;;;;;23.34;52.72;99653.34;7554565;33;40223;-80
2023/09/19 17:32:34;;;;;;;3.85;1.87;;;;;;;23.08;53.45;99651.94;7554498;33;37923;-80
2023/09/19 17:36:51;;;;;;;2.60;1.73;;;;;;;23.11;53.07;99656.78;7554621;33;36429;-80
2023/09/19 17:41:08;;;;;;;4.90;1.90;;;;;;;22.82;54.18;99658.78;7554873;33;39342;-80
2023/09/19 17:45:26;;;;;;;5.30;2.10;;;;;;;22.77;54.63;99675.72;7553838;33;39754;-81
2023/09/19 17:49:44;;;;;;;2.80;1.50;;;;;;;22.57;55.44;99674.78;7555061;33;36988;-82
2023/09/19 17:54:03;;;;;;;3.87;1.60;;;;;;;22.63;55.39;99680.91;7552602;33;37029;-83
2023/09/19 17:58:20;;;;;;;4.15;1.50;;;;;;;22.53;55.91;99675.88;7541874;33;38411;-79
2023/09/19 18:02:37;;;;;;;2.70;1.70;;;;;;;22.25;56.79;99683.03;7554893;33;39822;-78
2023/09/19 18:06:54;;;;;;;5.75;2.60;;;;;;;22.21;56.93;99687.66;7552864;33;38077;-80
2023/09/19 18:11:16;;;;;;;3.08;1.80;;;;;;;22.34;56.44;99694.00;7554130;33;36998;-79
2023/09/19 18:15:37;;;;;;;3.62;1.90;;;;;;;22.08;57.23;99699.97;7541481;33;39460;-81
2023/09/19 18:19:54;;;;;;;2.83;1.30;;;;;;;22.09;56.67;99702.41;7554404;33;40030;-82
2023/09/19 18:24:14;;;;;;;4.93;1.70;;;;;;;22.02;56.44;99707.72;7554658;33;37918;-80
2023/09/19 18:28:30;;;;;;;5.37;1.77;;;;;;;21.84;57.16;99706.41;7554994;33;37753;-80
2023/09/19 18:32:51;;;;;;;1.87;1.60;;;;;;;21.96;56.82;99713.88;7554288;33;39183;-81
2023/09/19 18:37:11;;;;;;;4.47;1.95;;;;;;;21.93;56.95;99716.19;7554533;33;40005;-81
2023/09/19 18:41:27;;;;;;;3.40;1.70;;;;;;;21.93;57.01;99720.94;7553571;33;38636;-79
2023/09/19 18:45:44;;;;;;;3.72;2.03;;;;;;;21.78;57.29;99735.53;7554559;33;37133;-80
2023/09/19 18:50:01;;;;;;;4.62;1.67;;;;;;;21.70;57.76;99728.97;7553625;33;39374;-82
2023/09/19 18:54:18;;;;;;;9.52;2.00;;;;;;;21.57;57.94;99739.22;7553041;33;40541;-78
2023/09/19 18:58:35;;;;;;;5.25;1.73;;;;;;;21.45;58.41;99737.22;7554121;33;38576;-78
2023/09/19 19:02:53;;;;;;;3.78;1.80;;;;;;;21.32;58.64;99744.75;7553938;33;38073;-78
2023/09/19 19:07:16;;;;;;;4.53;1.90;;;;;;;21.28;58.75;99746.56;7553633;33;39435;-80
2023/09/19 19:11:33;;;;;;;5.53;1.87;;;;;;;21.25;58.79;99743.69;7554097;33;40832;-80
2023/09/19 19:15:58;;;;;;;4.87;1.70;;;;;;;21.10;59.31;99747.97;7554034;33;38553;-79
2023/09/19 19:20:19;;;;;;;6.15;1.73;;;;;;;20.91;59.96;99746.53;7546706;33;37042;-80
2023/09/19 19:24:36;;;;;;;4.37;1.77;;;;;;;20.90;59.86;99758.75;7548214;33;40146;-79
2023/09/19 19:28:53;;;;;;;3.80;1.83;;;;;;;21.07;59.31;99756.94;7528996;33;39689;-78
2023/09/19 19:33:10;;;;;;;5.57;2.15;;;;;;;20.82;59.85;99765.22;7552340;33;37973;-79
2023/09/19 19:37:26;;;;;;;4.10;1.87;;;;;;;20.87;60.05;99765.00;7545319;33;37899;-79
2023/09/19 19:41:43;;;;;;;3.65;1.80;;;;;;;20.77;60.83;99765.41;7553429;33;40084;-79
2023/09/19 19:46:03;;;;;;;3.60;2.05;;;;;;;20.70;60.94;99776.25;7552929;33;40930;-78
2023/09/19 19:50:24;;;;;;;2.80;1.67;;;;;;;20.60;60.99;99772.69;7552835;33;37947;-77
2023/09/19 19:54:48;;;;;;;4.10;1.92;;;;;;;20.63;60.76;99774.03;7553087;33;37133;-78
2023/09/19 19:59:09;;;;;;;5.40;2.00;;;;;;;20.60;60.88;99778.25;7543569;33;313507;-81
2023/09/19 20:03:26;;;;;;;5.32;2.17;;;;;;;20.28;61.78;99779.81;7552841;33;40002;-79
2023/09/19 20:07:45;;;;;;;8.93;2.10;;;;;;;20.56;60.86;99788.37;7551295;33;37987;-80
2023/09/19 20:12:05;;;;;;;3.50;1.90;;;;;;;20.41;61.07;99784.25;7540506;33;37077;-81
2023/09/19 20:16:22;;;;;;;6.03;2.20;;;;;;;20.50;60.66;99789.72;7550849;33;40160;-82
2023/09/19 20:20:39;;;;;;;7.03;2.03;;;;;;;20.17;61.90;99787.69;7554758;33;39918;-82